Time;durP1;ratioP1;P1;durP2;ratioP2;P2;SDS_P1;SDS_P2;PMS_P1;PMS_P2;Temp;Humidity;BMP_temperature;BMP_pressure;BME280_temperature;BME280_humidity;BME280_pressure;Samples;Min_cycle;Max_cycle;Signal;HPM_P1;HPM_P2
2023/06/05 03:01:08;;;;;;;34.13;32.10;;;11.30;99.90;;;;;;5651594;23;20231;-74
2023/06/05 03:03:34;;;;;;;30.63;28.87;;;11.20;99.90;;;;;;4991550;28;20201;-73
2023/06/05 03:06:04;;;;;;;21.57;20.10;;;11.20;99.90;;;;;;4982147;28;20193;-73
2023/06/05 03:08:36;;;;;;;24.13;22.80;;;11.10;99.90;;;;;;4992143;28;20254;-74
2023/06/05 03:11:03;;;;;;;21.23;20.03;;;11.00;99.90;;;;;;4970129;28;20280;-74
2023/06/05 03:13:29;;;;;;;25.83;24.20;;;11.00;99.90;;;;;;4974781;28;20247;-73
2023/06/05 03:16:00;;;;;;;48.90;46.23;;;10.90;99.90;;;;;;5001202;23;20232;-75
2023/06/05 03:18:27;;;;;;;35.80;33.73;;;10.90;99.90;;;;;;4986959;28;20188;-75
2023/06/05 03:20:57;;;;;;;35.50;33.47;;;11.00;99.90;;;;;;4977006;28;20188;-75
2023/06/05 03:23:24;;;;;;;38.30;36.00;;;11.00;99.90;;;;;;4976781;28;20224;-74
2023/06/05 03:25:50;;;;;;;29.90;28.07;;;11.00;99.90;;;;;;4981632;28;20220;-74
2023/06/05 03:28:17;;;;;;;26.60;24.77;;;10.90;99.90;;;;;;4974453;28;20645;-75
2023/06/05 03:30:43;;;;;;;29.07;27.53;;;10.90;99.90;;;;;;4965181;28;20185;-74
2023/06/05 03:33:09;;;;;;;33.17;31.30;;;10.90;99.90;;;;;;4968307;28;20196;-74
2023/06/05 03:35:35;;;;;;;30.50;28.87;;;10.80;99.90;;;;;;4957184;28;20689;-73
2023/06/05 03:38:02;;;;;;;26.70;25.20;;;10.80;99.90;;;;;;4974336;28;20193;-74
2023/06/05 03:40:28;;;;;;;27.00;25.50;;;10.80;99.90;;;;;;4974773;28;20189;-74
2023/06/05 03:42:54;;;;;;;26.57;25.17;;;10.80;99.90;;;;;;4957547;28;20216;-75
2023/06/05 03:45:20;;;;;;;19.83;18.83;;;10.70;99.90;;;;;;4974468;28;20287;-74
2023/06/05 03:47:48;;;;;;;20.17;18.77;;;10.70;99.90;;;;;;4953760;28;20217;-74
2023/06/05 03:50:16;;;;;;;21.13;19.77;;;10.70;99.90;;;;;;4974431;28;20185;-74
2023/06/05 03:52:42;;;;;;;21.20;19.93;;;10.80;99.90;;;;;;4957161;28;20188;-74
2023/06/05 03:55:09;;;;;;;17.63;16.63;;;10.80;99.90;;;;;;4974340;28;20208;-74
2023/06/05 03:57:37;;;;;;;24.60;22.87;;;10.90;99.90;;;;;;4974069;28;20235;-74
2023/06/05 04:00:09;;;;;;;21.23;19.83;;;10.90;99.90;;;;;;4966550;28;20190;-74
2023/06/05 04:02:36;;;;;;;24.23;22.77;;;10.90;99.90;;;;;;4933988;28;20224;-74
2023/06/05 04:05:04;;;;;;;22.10;20.70;;;11.00;99.90;;;;;;4952107;28;20213;-76
2023/06/05 04:07:30;;;;;;;42.60;40.13;;;11.10;99.90;;;;;;4950266;28;20347;-71
2023/06/05 04:09:56;;;;;;;72.50;68.77;;;11.20;99.90;;;;;;4958380;28;20189;-70
2023/06/05 04:12:22;;;;;;;11.20;10.40;;;11.30;99.90;;;;;;4953184;28;20593;-70
2023/06/05 04:14:48;;;;;;;16.27;15.30;;;11.40;99.90;;;;;;4943313;28;20271;-70
2023/06/05 04:17:14;;;;;;;24.37;22.97;;;11.50;99.90;;;;;;4951955;28;20758;-72
2023/06/05 04:19:43;;;;;;;42.17;39.87;;;11.60;99.90;;;;;;4947630;28;20189;-71
2023/06/05 04:22:09;;;;;;;31.53;29.67;;;11.60;99.90;;;;;;4973137;28;20209;-71
2023/06/05 04:24:35;;;;;;;31.57;29.97;;;11.70;99.90;;;;;;4948684;28;20211;-72
2023/06/05 04:27:02;;;;;;;50.23;47.50;;;11.80;99.90;;;;;;4953252;28;20311;-71
2023/06/05 04:29:28;;;;;;;41.63;39.43;;;11.80;99.90;;;;;;4950042;28;20193;-72
2023/06/05 04:31:54;;;;;;;23.43;22.07;;;12.00;99.90;;;;;;4959208;28;20260;-72
2023/06/05 04:34:20;;;;;;;13.00;12.20;;;12.10;99.90;;;;;;4969550;28;20193;-71
2023/06/05 04:36:51;;;;;;;8.83;8.17;;;12.20;99.90;;;;;;4972883;28;20193;-71
2023/06/05 04:39:18;;;;;;;8.40;7.90;;;12.20;99.90;;;;;;4972783;28;20247;-71
2023/06/05 04:41:45;;;;;;;10.83;9.87;;;12.30;99.90;;;;;;4972735;28;20200;-72
2023/06/05 04:44:12;;;;;;;15.07;14.07;;;12.40;99.90;;;;;;4949543;29;20740;-71
2023/06/05 04:46:39;;;;;;;19.30;18.10;;;12.50;99.90;;;;;;4948357;28;20221;-72
2023/06/05 04:49:06;;;;;;;28.53;26.97;;;12.60;99.90;;;;;;4971855;28;20732;-71
2023/06/05 04:51:33;;;;;;;132.27;125.27;;;12.80;99.90;;;;;;4972828;28;20200;-72
2023/06/05 04:53:59;;;;;;;183.57;173.60;;;13.00;99.90;;;;;;4955434;28;20189;-71
2023/06/05 04:56:25;;;;;;;8.60;7.90;;;13.20;99.90;;;;;;4955308;28;20579;-71
2023/06/05 04:58:52;;;;;;;19.43;18.13;;;13.40;99.90;;;;;;4964128;28;20325;-71
2023/06/05 05:01:19;;;;;;;81.63;77.37;;;13.60;99.90;;;;;;4955964;28;20256;-71
2023/06/05 05:03:47;;;;;;;32.70;30.77;;;13.90;99.90;;;;;;4972880;28;20204;-71
2023/06/05 05:06:17;;;;;;;38.13;35.83;;;14.40;99.90;;;;;;4955600;28;20216;-72
2023/06/05 05:08:48;;;;;;;10.27;9.40;;;14.90;99.90;;;;;;4964897;28;20197;-70
2023/06/05 05:11:14;;;;;;;60.50;57.20;;;15.50;99.90;;;;;;4954271;28;20642;-71
2023/06/05 05:13:41;;;;;;;23.00;21.65;;;16.10;99.90;;;;;;4971536;28;20231;-72
2023/06/05 05:16:07;;;;;;;12.20;11.25;;;16.70;99.90;;;;;;4969846;28;20225;-71
2023/06/05 05:18:34;;;;;;;12.38;9.10;;;17.10;99.90;;;;;;4972592;28;20260;-70
2023/06/05 05:21:02;;;;;;;19.45;18.13;;;17.60;99.90;;;;;;4964458;28;20295;-71
2023/06/05 05:23:28;;;;;;;19.17;17.80;;;18.20;99.90;;;;;;4955253;28;20185;-71
2023/06/05 05:25:54;;;;;;;19.17;18.10;;;18.20;99.90;;;;;;4966525;28;20223;-69
2023/06/05 05:28:19;;;;;;;11.80;10.70;;;18.00;99.90;;;;;;4971660;28;20204;-71
2023/06/05 05:30:45;;;;;;;14.77;13.65;;;18.20;99.90;;;;;;4972501;28;20196;-71
2023/06/05 05:33:11;;;;;;;34.97;33.05;;;18.40;99.90;;;;;;4972422;28;20560;-74
2023/06/05 05:35:37;;;;;;;29.83;27.77;;;18.70;99.90;;;;;;4971716;28;20657;-72
2023/06/05 05:38:03;;;;;;;21.73;20.52;;;19.10;99.90;;;;;;4954943;28;20236;-72
2023/06/05 05:40:28;;;;;;;11.35;10.60;;;19.50;99.90;;;;;;4969652;28;20185;-73
2023/06/05 05:42:54;;;;;;;6.65;6.05;;;19.80;99.90;;;;;;4972787;28;20197;-72
2023/06/05 05:45:20;;;;;;;7.53;6.80;;;19.80;99.90;;;;;;4971698;28;20694;-72
2023/06/05 05:47:45;;;;;;;8.10;7.50;;;19.80;99.90;;;;;;4971421;28;20213;-74
2023/06/05 05:50:11;;;;;;;10.68;9.88;;;20.10;99.90;;;;;;4971479;28;20185;-73
2023/06/05 05:52:38;;;;;;;7.28;6.60;;;20.50;99.90;;;;;;4965060;28;20192;-72
2023/06/05 05:55:05;;;;;;;11.13;10.43;;;20.80;99.80;;;;;;4966460;28;20240;-71
2023/06/05 05:57:30;;;;;;;12.77;9.70;;;21.40;98.70;;;;;;4971366;28;20247;-73
2023/06/05 05:59:56;;;;;;;7.80;7.30;;;21.50;97.40;;;;;;4971070;28;20233;-71
2023/06/05 06:02:22;;;;;;;7.50;6.78;;;21.70;95.90;;;;;;4971283;28;20189;-73
2023/06/05 06:04:48;;;;;;;7.45;6.15;;;21.50;95.10;;;;;;4954916;28;20216;-72
2023/06/05 06:07:14;;;;;;;7.05;6.35;;;21.20;95.60;;;;;;4967679;28;20205;-71
2023/06/05 06:09:40;;;;;;;8.63;6.50;;;21.40;95.10;;;;;;4959083;28;20566;-71
2023/06/05 06:12:07;;;;;;;6.65;6.15;;;21.80;94.10;;;;;;4972181;28;20189;-71
2023/06/05 06:14:33;;;;;;;14.50;13.60;;;22.00;94.40;;;;;;4958345;28;20181;-71
2023/06/05 06:17:00;;;;;;;19.10;17.90;;;22.40;93.10;;;;;;4949128;28;20216;-70
2023/06/05 06:19:27;;;;;;;15.20;14.30;;;22.40;92.20;;;;;;4971799;28;20288;-72
2023/06/05 06:21:53;;;;;;;10.98;10.18;;;22.80;91.10;;;;;;4962971;28;20268;-68
2023/06/05 06:24:20;;;;;;;12.52;11.43;;;23.30;90.60;;;;;;4970666;28;20556;-69
2023/06/05 06:26:46;;;;;;;11.50;10.77;;;23.40;88.20;;;;;;4971741;28;20213;-69
2023/06/05 06:29:15;;;;;;;9.10;8.32;;;23.20;88.90;;;;;;4953756;28;20247;-69
2023/06/05 06:31:42;;;;;;;8.85;8.25;;;23.50;86.80;;;;;;4971601;28;20620;-69
2023/06/05 06:34:09;;;;;;;9.68;9.07;;;23.90;84.50;;;;;;4945234;28;20189;-71
2023/06/05 06:36:43;;;;;;;9.10;8.52;;;24.20;83.10;;;;;;4964816;28;20689;-72
2023/06/05 06:39:12;;;;;;;6.75;6.35;;;24.50;82.60;;;;;;4964801;28;20197;-71
2023/06/05 06:41:39;;;;;;;9.93;5.38;;;24.60;78.60;;;;;;4971532;28;20280;-72
2023/06/05 06:44:05;;;;;;;5.45;5.07;;;24.70;76.80;;;;;;4971144;28;20189;-71
2023/06/05 06:46:31;;;;;;;5.18;4.78;;;24.80;77.70;;;;;;4953959;28;20217;-71
2023/06/05 06:48:57;;;;;;;6.03;5.63;;;25.00;75.70;;;;;;4953745;28;20197;-72
2023/06/05 06:51:24;;;;;;;9.18;8.48;;;25.20;74.70;;;;;;4950777;28;20639;-71
2023/06/05 06:53:50;;;;;;;10.70;9.90;;;25.40;74.50;;;;;;4965683;28;20196;-71
2023/06/05 06:56:17;;;;;;;16.83;15.50;;;25.50;73.60;;;;;;4971340;28;20259;-71
2023/06/05 06:58:44;;;;;;;24.80;23.30;;;25.80;72.20;;;;;;4970912;28;20189;-72
2023/06/05 07:01:11;;;;;;;30.00;28.17;;;26.00;72.80;;;;;;4971581;28;20665;-72
2023/06/05 07:03:38;;;;;;;28.67;26.60;;;26.20;70.90;;;;;;4973882;28;20217;-73
2023/06/05 07:06:04;;;;;;;27.35;25.83;;;26.40;69.80;;;;;;4962834;28;20235;-71
2023/06/05 07:08:30;;;;;;;26.40;25.00;;;26.00;69.30;;;;;;4951798;28;20208;-71
2023/06/05 07:10:55;;;;;;;27.17;25.67;;;25.80;70.30;;;;;;4965348;28;20565;-71
2023/06/05 07:13:22;;;;;;;24.17;22.88;;;26.00;69.40;;;;;;4957223;28;20192;-72
2023/06/05 07:15:48;;;;;;;29.33;27.48;;;26.00;70.20;;;;;;4974454;28;20232;-73
2023/06/05 07:18:15;;;;;;;28.00;26.30;;;26.00;69.60;;;;;;4947032;28;20286;-73
2023/06/05 07:20:40;;;;;;;25.38;23.88;;;26.10;72.10;;;;;;4973827;28;20730;-74
2023/06/05 07:23:07;;;;;;;29.60;28.02;;;26.50;68.80;;;;;;4974911;28;20189;-73
2023/06/05 07:25:33;;;;;;;18.35;17.00;;;26.80;68.10;;;;;;4974368;28;20205;-73
2023/06/05 07:27:59;;;;;;;23.63;22.30;;;27.00;66.60;;;;;;4973739;28;20227;-73
2023/06/05 07:30:28;;;;;;;14.40;13.43;;;27.00;68.30;;;;;;4974382;28;20316;-72
2023/06/05 07:32:54;;;;;;;16.10;15.15;;;27.00;67.60;;;;;;4946439;29;20185;-72
2023/06/05 07:35:20;;;;;;;23.77;22.48;;;26.50;66.10;;;;;;4953693;28;20651;-72
2023/06/05 07:37:46;;;;;;;36.47;34.38;;;26.20;69.20;;;;;;4970461;28;20190;-72
2023/06/05 07:40:13;;;;;;;33.80;31.67;;;25.50;70.10;;;;;;4953811;28;20757;-72
2023/06/05 07:42:39;;;;;;;17.65;16.42;;;25.20;72.60;;;;;;4956258;28;20189;-72
2023/06/05 07:45:05;;;;;;;19.55;18.30;;;25.40;72.30;;;;;;4967377;28;20289;-71
2023/06/05 07:47:31;;;;;;;17.67;16.75;;;25.70;72.10;;;;;;4968148;28;20220;-72
2023/06/05 07:50:03;;;;;;;21.75;20.48;;;25.90;70.10;;;;;;4974029;28;20189;-71
2023/06/05 07:52:30;;;;;;;28.30;26.70;;;26.30;70.50;;;;;;4974301;28;20248;-73
2023/06/05 07:54:56;;;;;;;37.53;35.35;;;26.70;70.30;;;;;;4956822;28;20288;-72
2023/06/05 07:57:23;;;;;;;32.28;30.55;;;26.90;68.90;;;;;;4967361;28;20657;-73
2023/06/05 07:59:50;;;;;;;31.05;29.48;;;26.90;68.10;;;;;;4972132;28;20199;-72
2023/06/05 08:02:20;;;;;;;34.38;32.47;;;27.00;68.00;;;;;;4973420;28;20273;-72
2023/06/05 08:04:46;;;;;;;26.88;25.05;;;27.20;67.90;;;;;;4958927;28;20213;-71
2023/06/05 08:07:13;;;;;;;13.40;12.48;;;27.50;68.20;;;;;;4973284;28;20212;-71
2023/06/05 08:09:39;;;;;;;9.40;8.80;;;27.90;67.40;;;;;;4962109;28;20195;-72
2023/06/05 08:12:05;;;;;;;6.43;5.82;;;28.40;69.30;;;;;;4974059;28;20181;-71
2023/06/05 08:14:33;;;;;;;5.90;4.75;;;28.80;67.60;;;;;;4967599;28;20272;-71
2023/06/05 08:16:58;;;;;;;6.97;5.30;;;28.70;66.70;;;;;;4967960;28;20192;-72
2023/06/05 08:19:24;;;;;;;5.82;5.30;;;29.00;69.00;;;;;;4973746;28;20193;-71
2023/06/05 08:21:53;;;;;;;6.18;5.63;;;29.00;67.20;;;;;;4973776;28;20197;-72
2023/06/05 08:24:20;;;;;;;5.72;5.22;;;28.70;67.00;;;;;;4972968;28;20284;-72
2023/06/05 08:26:46;;;;;;;6.05;5.55;;;28.70;67.70;;;;;;4973317;28;20294;-71
2023/06/05 08:29:12;;;;;;;6.43;5.90;;;29.10;67.70;;;;;;4953588;28;20199;-71
2023/06/05 08:31:38;;;;;;;7.15;6.68;;;28.80;65.30;;;;;;4971425;28;20204;-71
2023/06/05 08:34:05;;;;;;;7.15;6.28;;;28.50;67.40;;;;;;4973796;28;20279;-71
2023/06/05 08:36:32;;;;;;;6.75;6.22;;;28.10;69.30;;;;;;4973256;28;20636;-71
2023/06/05 08:39:01;;;;;;;6.93;6.20;;;28.60;69.70;;;;;;4972842;28;20845;-72
2023/06/05 08:41:30;;;;;;;6.75;6.25;;;28.90;67.00;;;;;;4955928;28;20211;-72
2023/06/05 08:43:56;;;;;;;8.30;7.47;;;29.10;66.70;;;;;;4948040;28;20196;-72
2023/06/05 08:46:25;;;;;;;7.32;6.93;;;29.10;67.80;;;;;;4965241;28;20212;-71
2023/06/05 08:48:51;;;;;;;8.88;8.27;;;29.40;66.50;;;;;;4968468;28;20196;-70
2023/06/05 08:51:18;;;;;;;8.40;7.60;;;29.50;67.60;;;;;;4954669;28;20182;-69
2023/06/05 08:54:12;;;;;;;8.93;8.18;;;29.50;65.00;;;;;;4964437;28;20228;-70
2023/06/05 08:56:39;;;;;;;8.80;8.30;;;29.50;65.90;;;;;;4964431;28;20244;-70
2023/06/05 08:59:10;;;;;;;9.77;8.93;;;29.60;65.40;;;;;;4947072;28;20189;-70
2023/06/05 09:01:37;;;;;;;10.38;9.75;;;29.60;64.50;;;;;;4971860;28;20200;-70
2023/06/05 09:04:02;;;;;;;11.57;10.52;;;29.60;65.90;;;;;;4972322;28;20189;-70
2023/06/05 09:06:28;;;;;;;7.50;7.00;;;30.00;64.70;;;;;;4972098;28;20264;-70
2023/06/05 09:08:55;;;;;;;6.38;5.28;;;30.20;63.20;;;;;;4964045;28;20177;-70
2023/06/05 09:11:28;;;;;;;7.97;7.47;;;30.10;61.40;;;;;;4970307;28;20284;-70
2023/06/05 09:13:59;;;;;;;7.65;6.88;;;29.10;62.60;;;;;;4970754;28;20188;-70
2023/06/05 09:16:40;;;;;;;6.70;6.20;;;28.50;63.40;;;;;;4993113;23;20722;-69
2023/06/05 09:19:06;;;;;;;6.05;5.63;;;28.70;64.40;;;;;;4989662;28;20203;-69
2023/06/05 09:21:32;;;;;;;6.15;5.75;;;29.50;62.50;;;;;;4991746;28;20247;-68
2023/06/05 09:24:15;;;;;;;8.02;7.40;;;29.00;62.10;;;;;;4991612;28;20212;-69
2023/06/05 09:27:08;;;;;;;7.65;5.53;;;28.80;63.70;;;;;;4967638;28;20231;-69
2023/06/05 09:29:38;;;;;;;6.70;6.25;;;29.60;61.90;;;;;;4961760;28;20715;-69
2023/06/05 09:32:19;;;;;;;9.18;8.30;;;29.70;59.90;;;;;;4972211;28;20201;-68
2023/06/05 09:34:45;;;;;;;7.97;7.18;;;29.60;60.30;;;;;;4964169;28;20184;-68
2023/06/05 09:37:12;;;;;;;6.03;5.63;;;28.50;60.40;;;;;;4971990;28;20192;-68
2023/06/05 09:39:39;;;;;;;6.15;5.25;;;28.10;61.20;;;;;;4972038;28;20274;-69
2023/06/05 09:42:06;;;;;;;6.30;5.85;;;28.80;60.20;;;;;;4962372;28;20195;-69
2023/06/05 09:44:34;;;;;;;6.50;5.90;;;29.00;57.00;;;;;;4970432;28;20192;-69
2023/06/05 09:47:10;;;;;;;7.85;5.70;;;28.50;57.70;;;;;;4966308;28;20213;-69
2023/06/05 09:49:38;;;;;;;6.65;6.13;;;28.20;58.50;;;;;;4971646;28;20193;-69
2023/06/05 09:52:04;;;;;;;6.68;6.25;;;28.10;60.20;;;;;;4971927;28;20865;-69
2023/06/05 09:54:31;;;;;;;8.13;5.35;;;27.90;59.60;;;;;;4971714;28;20271;-69
2023/06/05 09:57:02;;;;;;;5.93;5.43;;;27.60;60.40;;;;;;4968116;28;20194;-68
2023/06/05 09:59:31;;;;;;;8.38;7.07;;;27.20;60.30;;;;;;4968505;28;20233;-69
2023/06/05 10:02:00;;;;;;;7.60;7.10;;;27.20;62.10;;;;;;4965600;28;20204;-69
2023/06/05 10:04:28;;;;;;;9.57;5.63;;;27.70;59.80;;;;;;4971443;28;20244;-69
2023/06/05 10:06:59;;;;;;;6.28;5.50;;;29.30;58.70;;;;;;4970603;28;20213;-69
2023/06/05 10:09:25;;;;;;;8.98;8.43;;;29.90;56.50;;;;;;4971155;28;20657;-69
2023/06/05 10:11:52;;;;;;;7.68;7.22;;;29.90;55.90;;;;;;4951189;28;20295;-69
2023/06/05 10:14:21;;;;;;;8.85;6.93;;;29.20;56.00;;;;;;4959813;28;20717;-69
2023/06/05 10:16:51;;;;;;;5.85;5.35;;;28.60;56.50;;;;;;4971304;28;20227;-69
2023/06/05 10:19:24;;;;;;;4.72;4.38;;;28.20;56.70;;;;;;4970838;28;20223;-69
2023/06/05 10:21:50;;;;;;;5.70;5.30;;;28.00;56.60;;;;;;4954212;28;20256;-69
2023/06/05 10:24:27;;;;;;;7.05;6.50;;;28.40;57.10;;;;;;4954109;28;20276;-69
2023/06/05 10:27:11;;;;;;;10.25;9.38;;;29.70;54.60;;;;;;4945572;28;20248;-69
2023/06/05 10:29:51;;;;;;;23.63;22.35;;;29.80;53.00;;;;;;4971043;28;20653;-69
2023/06/05 10:32:32;;;;;;;27.02;25.58;;;30.50;52.10;;;;;;4970894;28;20251;-69
2023/06/05 10:35:36;;;;;;;42.67;40.25;;;30.60;52.30;;;;;;4971341;28;20289;-73
2023/06/05 10:38:21;;;;;;;33.70;31.80;;;31.30;50.70;;;;;;4970856;28;20193;-73
2023/06/05 10:40:58;;;;;;;30.83;29.17;;;29.80;49.60;;;;;;4966549;28;20684;-73
2023/06/05 10:43:29;;;;;;;13.85;13.15;;;28.70;52.00;;;;;;4971356;28;20196;-73
2023/06/05 10:45:57;;;;;;;15.30;14.13;;;28.50;52.90;;;;;;4958999;28;20584;-73
2023/06/05 10:49:01;;;;;;;25.13;23.73;;;29.50;53.10;;;;;;4974089;28;20630;-75
2023/06/05 10:51:43;;;;;;;48.17;45.75;;;30.90;50.80;;;;;;4974960;28;20642;-74
2023/06/05 10:54:38;;;;;;;39.40;37.38;;;30.20;49.80;;;;;;4957091;28;20247;-73
2023/06/05 10:57:09;;;;;;;26.13;24.63;;;29.20;51.30;;;;;;4963502;28;20839;-73
2023/06/05 10:59:39;;;;;;;42.50;40.28;;;29.30;52.70;;;;;;4978420;28;20209;-72
2023/06/05 11:02:26;;;;;;;38.30;36.13;;;30.50;50.40;;;;;;4988165;28;20279;-74
2023/06/05 11:04:55;;;;;;;21.10;19.90;;;31.20;49.10;;;;;;4970787;28;20198;-73
2023/06/05 11:07:30;;;;;;;13.85;12.95;;;32.00;47.70;;;;;;4970907;28;20225;-74
2023/06/05 11:10:03;;;;;;;19.63;18.55;;;31.30;47.70;;;;;;4950547;28;20657;-73
2023/06/05 11:12:34;;;;;;;48.38;45.88;;;29.70;48.90;;;;;;4974398;28;20193;-74
2023/06/05 11:15:01;;;;;;;39.67;37.58;;;29.20;50.20;;;;;;4957352;28;20245;-74
2023/06/05 11:17:30;;;;;;;46.22;43.92;;;29.80;50.00;;;;;;4973639;28;20188;-74
2023/06/05 11:19:57;;;;;;;35.83;33.67;;;30.90;50.10;;;;;;4974093;28;20317;-74
2023/06/05 11:22:22;;;;;;;10.65;10.05;;;32.30;50.10;;;;;;4966011;28;20680;-74
2023/06/05 11:25:13;;;;;;;14.60;13.90;;;33.20;46.30;;;;;;4953054;28;20192;-75
2023/06/05 11:27:44;;;;;;;16.70;15.57;;;34.20;46.30;;;;;;4973517;28;20237;-74
2023/06/05 11:30:15;;;;;;;11.35;10.70;;;34.60;43.60;;;;;;4949322;29;20185;-74
2023/06/05 11:32:41;;;;;;;5.20;5.00;;;35.10;43.10;;;;;;4973460;28;20641;-75
2023/06/05 11:35:08;;;;;;;5.50;5.10;;;34.90;42.30;;;;;;4973988;28;20209;-74
2023/06/05 11:37:34;;;;;;;8.07;7.55;;;34.00;41.60;;;;;;4970626;28;20205;-73
2023/06/05 11:40:11;;;;;;;11.02;10.32;;;33.10;43.80;;;;;;4968201;28;20211;-74
2023/06/05 11:42:38;;;;;;;10.75;10.07;;;32.90;43.70;;;;;;4973509;28;20276;-73
2023/06/05 11:45:14;;;;;;;15.93;15.10;;;32.30;43.90;;;;;;4950319;29;20218;-75
2023/06/05 11:47:40;;;;;;;19.10;17.88;;;31.40;45.90;;;;;;4972484;28;20259;-74
2023/06/05 11:50:13;;;;;;;25.58;24.17;;;30.50;46.30;;;;;;4973945;28;20255;-73
2023/06/05 11:52:39;;;;;;;15.05;14.18;;;29.90;46.90;;;;;;4968026;28;20706;-74
2023/06/05 11:55:29;;;;;;;18.00;16.92;;;30.60;48.90;;;;;;4973260;28;20701;-74
2023/06/05 11:57:55;;;;;;;22.83;21.63;;;32.30;46.80;;;;;;4971383;28;20201;-74
2023/06/05 12:00:26;;;;;;;9.40;8.85;;;33.80;43.80;;;;;;4956011;28;20587;-74
2023/06/05 12:02:52;;;;;;;8.75;8.18;;;34.40;40.50;;;;;;4955796;28;20243;-74
2023/06/05 12:05:18;;;;;;;12.70;11.80;;;33.30;42.30;;;;;;4973354;28;20232;-73
2023/06/05 12:07:44;;;;;;;20.50;19.20;;;31.80;44.10;;;;;;4953016;28;20299;-74
2023/06/05 12:10:10;;;;;;;19.75;18.60;;;30.30;45.50;;;;;;4973302;28;20747;-74
2023/06/05 12:12:50;;;;;;;23.15;21.90;;;29.10;46.40;;;;;;4973085;28;20193;-74
2023/06/05 12:15:17;;;;;;;25.58;24.23;;;29.10;47.90;;;;;;4972976;28;20231;-74
2023/06/05 12:17:54;;;;;;;17.45;16.48;;;30.50;47.40;;;;;;4955400;28;20749;-74
2023/06/05 12:20:20;;;;;;;20.85;19.75;;;32.30;44.60;;;;;;4972869;28;20191;-74
2023/06/05 12:22:47;;;;;;;10.13;9.40;;;33.60;43.50;;;;;;4962994;28;20193;-74
2023/06/05 12:25:20;;;;;;;5.88;5.35;;;34.80;40.30;;;;;;4957298;28;20261;-74
2023/06/05 12:27:46;;;;;;;6.10;5.60;;;35.70;37.70;;;;;;4940677;28;20293;-74
2023/06/05 12:30:14;;;;;;;6.35;5.97;;;35.90;38.30;;;;;;4955622;28;20213;-74
2023/06/05 12:32:40;;;;;;;7.65;7.13;;;36.30;38.30;;;;;;4955171;28;20189;-74
2023/06/05 12:35:21;;;;;;;16.60;15.45;;;36.60;39.40;;;;;;4970134;28;20232;-74
2023/06/05 12:37:51;;;;;;;14.50;13.75;;;37.40;38.80;;;;;;4957940;28;20193;-73
2023/06/05 12:40:20;;;;;;;15.13;14.32;;;37.40;36.90;;;;;;4972468;28;20196;-75
2023/06/05 12:42:48;;;;;;;22.98;21.58;;;36.30;38.00;;;;;;4958162;28;20235;-73
2023/06/05 12:45:15;;;;;;;8.38;7.65;;;34.30;39.50;;;;;;4964148;28;20264;-74
2023/06/05 12:47:42;;;;;;;21.05;19.75;;;32.20;41.90;;;;;;4964028;28;20693;-73
2023/06/05 12:50:11;;;;;;;18.95;17.85;;;30.80;43.80;;;;;;4971304;28;20189;-75
2023/06/05 12:52:38;;;;;;;7.93;7.32;;;31.80;43.80;;;;;;4973436;28;20200;-73
2023/06/05 12:55:05;;;;;;;5.53;5.03;;;33.60;41.70;;;;;;4955011;28;20715;-74
2023/06/05 12:57:34;;;;;;;7.97;6.35;;;34.80;39.60;;;;;;4972342;28;20197;-74
2023/06/05 13:00:04;;;;;;;9.77;9.07;;;35.20;38.90;;;;;;4955025;28;20207;-74
2023/06/05 13:02:33;;;;;;;8.10;7.65;;;35.20;39.20;;;;;;4972132;28;20192;-73
2023/06/05 13:04:59;;;;;;;5.60;5.20;;;33.50;40.90;;;;;;4948355;28;20205;-73
2023/06/05 13:07:24;;;;;;;6.30;5.63;;;32.80;41.50;;;;;;4965590;28;20200;-74
2023/06/05 13:09:51;;;;;;;6.43;5.32;;;32.80;42.80;;;;;;4946476;28;20645;-73
2023/06/05 13:12:17;;;;;;;6.45;5.75;;;33.20;42.00;;;;;;4952330;28;20185;-74
2023/06/05 13:14:43;;;;;;;15.85;14.60;;;32.70;41.50;;;;;;4970176;28;20942;-73
2023/06/05 13:17:08;;;;;;;18.73;17.52;;;31.60;42.80;;;;;;4954272;28;20228;-73
2023/06/05 13:19:34;;;;;;;13.90;13.07;;;31.30;44.60;;;;;;4968008;28;20188;-73
2023/06/05 13:22:00;;;;;;;13.82;13.00;;;32.40;42.90;;;;;;4968688;28;20564;-73
2023/06/05 13:24:26;;;;;;;7.20;6.15;;;33.50;41.20;;;;;;4972010;28;20580;-73
2023/06/05 13:26:52;;;;;;;6.97;6.38;;;33.60;40.00;;;;;;4953265;28;20243;-73
2023/06/05 13:29:18;;;;;;;7.55;6.95;;;33.80;40.20;;;;;;4969498;28;20774;-74
2023/06/05 13:31:44;;;;;;;6.45;6.03;;;34.20;38.40;;;;;;4950932;29;20533;-74
2023/06/05 13:34:12;;;;;;;8.95;6.75;;;34.40;38.80;;;;;;4958972;28;20191;-73
2023/06/05 13:36:38;;;;;;;9.40;8.70;;;35.10;39.40;;;;;;4968358;28;20226;-74
2023/06/05 13:39:04;;;;;;;15.35;14.32;;;36.00;38.20;;;;;;4965777;28;20205;-73
2023/06/05 13:41:30;;;;;;;16.17;14.95;;;35.90;37.70;;;;;;4970345;28;20216;-73
2023/06/05 13:43:57;;;;;;;18.90;17.90;;;36.40;36.00;;;;;;4960359;28;20614;-74
2023/06/05 13:46:25;;;;;;;15.57;14.40;;;36.60;35.90;;;;;;4958393;28;20205;-75
2023/06/05 13:48:52;;;;;;;16.20;15.23;;;36.40;36.40;;;;;;4953794;28;20185;-76
2023/06/05 13:51:18;;;;;;;14.25;13.30;;;35.00;37.60;;;;;;4964698;28;20212;-72
2023/06/05 13:53:44;;;;;;;10.90;10.20;;;33.60;39.70;;;;;;4961887;28;20180;-74
2023/06/05 13:56:10;;;;;;;8.38;7.88;;;33.10;39.90;;;;;;4966674;28;20287;-72
2023/06/05 13:58:36;;;;;;;5.80;5.15;;;32.40;39.80;;;;;;4971165;28;20568;-72
2023/06/05 14:01:02;;;;;;;6.15;5.65;;;32.20;42.00;;;;;;4953192;28;20668;-73
2023/06/05 14:03:28;;;;;;;7.53;7.03;;;33.30;39.50;;;;;;4971265;28;20192;-73
2023/06/05 14:05:54;;;;;;;10.63;10.02;;;34.70;38.20;;;;;;4954133;28;20220;-73
2023/06/05 14:08:20;;;;;;;16.83;15.88;;;35.80;38.80;;;;;;4961220;28;20201;-73
2023/06/05 14:10:46;;;;;;;14.20;13.30;;;36.60;35.70;;;;;;4963597;28;21074;-73
2023/06/05 14:13:12;;;;;;;16.77;15.88;;;37.40;35.60;;;;;;4971472;28;20193;-74
2023/06/05 14:15:38;;;;;;;14.60;13.75;;;37.00;35.20;;;;;;4971142;28;20723;-75
2023/06/05 14:18:05;;;;;;;21.73;20.38;;;36.80;35.80;;;;;;4953326;28;20199;-73
2023/06/05 14:20:32;;;;;;;15.95;15.13;;;36.30;35.60;;;;;;4969040;28;20212;-74
2023/06/05 14:22:59;;;;;;;17.13;16.08;;;36.60;35.80;;;;;;4968176;28;20740;-73
2023/06/05 14:25:25;;;;;;;13.23;12.45;;;36.70;37.00;;;;;;4964999;28;20358;-74
2023/06/05 14:27:55;;;;;;;28.60;26.92;;;36.90;36.20;;;;;;4980228;28;20212;-73
2023/06/05 14:30:26;;;;;;;37.65;35.70;;;37.40;35.00;;;;;;4980085;28;20665;-73
2023/06/05 14:32:52;;;;;;;21.88;20.52;;;36.30;35.30;;;;;;4974857;28;20195;-74
2023/06/05 14:35:19;;;;;;;35.45;33.63;;;36.60;36.50;;;;;;4975226;28;20197;-74
2023/06/05 14:37:46;;;;;;;26.00;24.55;;;37.10;34.70;;;;;;4949850;28;20192;-74
2023/06/05 14:40:12;;;;;;;39.72;37.72;;;37.40;34.50;;;;;;4974725;28;20226;-74
2023/06/05 14:42:38;;;;;;;23.33;21.83;;;37.70;35.60;;;;;;4975186;28;20209;-74
2023/06/05 14:45:05;;;;;;;30.13;28.35;;;37.30;35.10;;;;;;4974698;28;20209;-74
2023/06/05 14:47:31;;;;;;;17.75;16.70;;;35.60;35.40;;;;;;4973994;28;20299;-74
2023/06/05 14:49:56;;;;;;;17.80;16.55;;;33.40;37.80;;;;;;4967156;28;20269;-74
2023/06/05 14:52:22;;;;;;;13.90;12.88;;;33.70;38.80;;;;;;4970240;28;20224;-79
2023/06/05 14:54:48;;;;;;;19.20;18.13;;;34.50;37.20;;;;;;4952797;28;20184;-75
2023/06/05 14:57:14;;;;;;;21.55;20.33;;;35.30;36.30;;;;;;4974486;28;20204;-75
2023/06/05 14:59:40;;;;;;;13.95;13.05;;;35.00;36.50;;;;;;4964486;28;20213;-73
2023/06/05 15:02:06;;;;;;;11.82;11.02;;;33.80;38.30;;;;;;4973106;28;20189;-75
2023/06/05 15:04:33;;;;;;;12.70;11.73;;;33.90;38.80;;;;;;4959555;28;20209;-73
2023/06/05 15:06:59;;;;;;;16.95;15.63;;;34.60;38.10;;;;;;4955956;28;20220;-75
2023/06/05 15:09:25;;;;;;;20.50;19.35;;;35.70;37.30;;;;;;4959598;28;20186;-75
2023/06/05 15:11:52;;;;;;;14.63;13.85;;;35.70;37.00;;;;;;4957609;28;20725;-74
2023/06/05 15:14:18;;;;;;;19.08;17.75;;;35.30;36.00;;;;;;4959914;28;20218;-73
2023/06/05 15:16:44;;;;;;;16.13;15.18;;;35.20;36.40;;;;;;4999263;23;20252;-76
2023/06/05 15:19:10;;;;;;;14.77;13.98;;;35.70;35.00;;;;;;4970004;28;20189;-76
2023/06/05 15:21:36;;;;;;;14.35;13.23;;;35.60;36.30;;;;;;4966608;28;20785;-76
2023/06/05 15:24:02;;;;;;;16.75;15.77;;;35.70;35.70;;;;;;4988384;28;20192;-75
2023/06/05 15:26:27;;;;;;;15.65;14.75;;;35.40;35.80;;;;;;4966855;28;20227;-75
2023/06/05 15:28:53;;;;;;;14.57;13.68;;;35.70;36.50;;;;;;4942161;28;20674;-76
2023/06/05 15:31:19;;;;;;;20.85;19.20;;;35.60;36.30;;;;;;4950307;28;20224;-77
2023/06/05 15:33:45;;;;;;;23.45;21.05;;;35.50;37.00;;;;;;4962579;28;20184;-78
2023/06/05 15:36:11;;;;;;;25.15;23.75;;;35.00;36.50;;;;;;4943810;29;20260;-77
2023/06/05 15:38:36;;;;;;;17.83;16.92;;;34.30;37.30;;;;;;4954844;28;20576;-76